Time;durP1;ratioP1;P1;durP2;ratioP2;P2;SDS_P1;SDS_P2;PMS_P1;PMS_P2;Temp;Humidity;BMP_temperature;BMP_pressure;BME280_temperature;BME280_humidity;BME280_pressure;Samples;Min_cycle;Max_cycle;Signal;HPM_P1;HPM_P2
2022/12/20 00:01:54;;;;;;;4.90;1.95;;;10.00;99.90;;;;;;7375343;32;20158;-61
2022/12/20 00:05:56;;;;;;;2.78;1.52;;;10.10;99.90;;;;;;7377211;32;20505;-60
2022/12/20 00:09:57;;;;;;;4.20;1.80;;;10.10;99.90;;;;;;7367714;32;20107;-60
2022/12/20 00:13:59;;;;;;;2.87;1.77;;;10.00;99.90;;;;;;7370082;32;20311;-60
2022/12/20 00:18:02;;;;;;;3.10;1.60;;;10.10;99.90;;;;;;7363535;32;20194;-60
2022/12/20 00:22:03;;;;;;;5.60;1.87;;;10.10;99.90;;;;;;7373533;32;20149;-60
2022/12/20 00:26:14;;;;;;;2.25;1.35;;;10.20;99.90;;;;;;7368112;32;20253;-60
2022/12/20 00:30:16;;;;;;;3.30;1.55;;;10.20;99.90;;;;;;7366825;32;20221;-60
2022/12/20 00:34:18;;;;;;;3.55;1.70;;;10.10;99.90;;;;;;7372582;32;20186;-62
2022/12/20 00:38:20;;;;;;;3.75;2.05;;;10.00;99.90;;;;;;7373261;32;20107;-60
2022/12/20 00:42:22;;;;;;;4.07;1.80;;;10.00;99.90;;;;;;7371308;32;20229;-60
2022/12/20 00:46:24;;;;;;;4.43;1.95;;;10.10;99.90;;;;;;7367697;32;20127;-60
2022/12/20 00:50:26;;;;;;;4.00;1.60;;;10.00;99.90;;;;;;7375730;32;20564;-60
2022/12/20 00:54:27;;;;;;;3.72;1.70;;;10.00;99.90;;;;;;7375217;32;20229;-60
2022/12/20 00:58:30;;;;;;;2.83;1.90;;;9.90;99.90;;;;;;7375246;32;20144;-60
2022/12/20 01:02:32;;;;;;;3.00;1.60;;;9.80;99.90;;;;;;7377767;32;20126;-60
2022/12/20 01:06:35;;;;;;;4.47;1.70;;;9.90;99.90;;;;;;7379622;32;20388;-60
2022/12/20 01:10:36;;;;;;;3.45;1.92;;;9.80;99.90;;;;;;7377160;32;20574;-61
2022/12/20 01:14:38;;;;;;;3.00;1.65;;;9.90;99.90;;;;;;7377204;32;20169;-60
2022/12/20 01:18:40;;;;;;;5.45;1.58;;;9.90;99.90;;;;;;7379226;32;20812;-60
2022/12/20 01:22:42;;;;;;;3.17;1.80;;;10.00;99.90;;;;;;7362817;32;20277;-60
2022/12/20 01:26:48;;;;;;;4.07;1.55;;;10.00;99.90;;;;;;7375794;32;20111;-61
2022/12/20 01:30:50;;;;;;;2.70;1.50;;;10.00;99.90;;;;;;7378392;32;20164;-60
2022/12/20 01:34:53;;;;;;;4.20;1.60;;;10.00;99.90;;;;;;7372145;32;20220;-60
2022/12/20 01:39:07;;;;;;;3.00;1.73;;;10.10;99.90;;;;;;7376724;32;20194;-60
2022/12/20 01:43:13;;;;;;;2.97;1.35;;;10.20;99.90;;;;;;7373502;32;20115;-61
2022/12/20 01:47:15;;;;;;;3.25;1.58;;;10.30;99.90;;;;;;7373265;32;20111;-60
2022/12/20 01:51:17;;;;;;;3.22;1.50;;;10.20;99.90;;;;;;7372552;32;20221;-60
2022/12/20 01:55:23;;;;;;;5.10;1.90;;;10.20;99.90;;;;;;7375595;32;20170;-60
2022/12/20 01:59:27;;;;;;;2.70;1.58;;;10.10;99.90;;;;;;7375043;32;20194;-60
2022/12/20 02:03:31;;;;;;;2.53;1.50;;;10.10;99.90;;;;;;7374625;32;20119;-60
2022/12/20 02:07:34;;;;;;;5.03;2.00;;;10.00;99.90;;;;;;7373174;32;20225;-61
2022/12/20 02:11:55;;;;;;;6.22;2.05;;;10.00;99.90;;;;;;7367039;32;20096;-61
2022/12/20 02:15:57;;;;;;;4.40;2.10;;;10.00;99.90;;;;;;7376078;32;20130;-60
2022/12/20 02:20:25;;;;;;;3.92;1.70;;;9.90;99.90;;;;;;7375582;32;20206;-60
2022/12/20 02:24:51;;;;;;;5.75;1.90;;;9.90;99.90;;;;;;7372187;32;20103;-60
2022/12/20 02:28:59;;;;;;;2.87;1.70;;;10.00;99.90;;;;;;7374793;32;20107;-60
2022/12/20 02:33:10;;;;;;;;;;;9.90;99.90;;;;;;7377813;32;20545;-61
2022/12/20 02:37:12;;;;;;;3.00;1.98;;;9.90;99.90;;;;;;7372324;32;20089;-60
2022/12/20 02:41:28;;;;;;;5.50;2.55;;;9.90;99.90;;;;;;7372282;32;20126;-60
2022/12/20 02:45:34;;;;;;;2.65;2.10;;;9.90;99.90;;;;;;7373519;32;20174;-60
2022/12/20 02:49:40;;;;;;;3.75;2.12;;;10.00;99.90;;;;;;7379808;32;20115;-60
2022/12/20 02:53:42;;;;;;;4.03;2.15;;;10.00;99.90;;;;;;7374701;32;20103;-60
2022/12/20 02:57:52;;;;;;;3.33;2.00;;;10.00;99.90;;;;;;7371350;32;20143;-59
2022/12/20 03:02:02;;;;;;;5.43;2.47;;;10.10;99.90;;;;;;7370134;32;20159;-60
2022/12/20 03:06:04;;;;;;;4.30;2.10;;;10.00;99.90;;;;;;7373210;32;20213;-60
2022/12/20 03:10:06;;;;;;;3.87;2.40;;;10.00;99.90;;;;;;7376989;32;20694;-60
2022/12/20 03:14:08;;;;;;;2.45;2.08;;;9.90;99.90;;;;;;7377436;32;20209;-61
2022/12/20 03:18:10;;;;;;;4.00;2.30;;;10.00;99.90;;;;;;7374465;32;20090;-60
2022/12/20 03:22:11;;;;;;;5.82;2.90;;;9.80;99.90;;;;;;7378111;32;20111;-60
2022/12/20 03:26:13;;;;;;;5.12;2.55;;;9.80;99.90;;;;;;7377215;32;20115;-60
2022/12/20 03:30:15;;;;;;;4.68;2.47;;;9.80;99.90;;;;;;7369789;32;20234;-60
2022/12/20 03:34:16;;;;;;;7.75;2.83;;;9.60;99.90;;;;;;7361415;32;20178;-60
2022/12/20 03:38:18;;;;;;;6.28;3.25;;;9.60;99.90;;;;;;7376506;32;20263;-61
2022/12/20 03:42:20;;;;;;;6.43;3.62;;;9.50;99.90;;;;;;7373926;32;20099;-61
2022/12/20 03:46:22;;;;;;;5.90;3.92;;;9.40;99.90;;;;;;7371631;32;20099;-62
2022/12/20 03:50:23;;;;;;;4.20;2.92;;;9.30;99.90;;;;;;7376613;32;20515;-60
2022/12/20 03:54:26;;;;;;;7.00;3.20;;;9.30;99.90;;;;;;7377631;32;20462;-59
2022/12/20 03:58:27;;;;;;;5.85;3.30;;;9.30;99.90;;;;;;7378251;32;20273;-59
2022/12/20 04:02:29;;;;;;;6.72;3.45;;;9.30;99.90;;;;;;7373844;32;20860;-60
2022/12/20 04:06:31;;;;;;;5.28;2.80;;;9.40;99.90;;;;;;7374509;32;20107;-61
2022/12/20 04:11:14;;;;;;;8.93;3.35;;;9.40;99.90;;;;;;7377932;32;20209;-60
2022/12/20 04:14:54;;;;;;;4.43;3.15;;;9.30;99.90;;;;;;7375765;32;20221;-59
2022/12/20 04:18:56;;;;;;;4.55;3.35;;;9.40;99.90;;;;;;7370920;32;20125;-59
2022/12/20 04:22:58;;;;;;;5.47;2.75;;;9.30;99.90;;;;;;7376214;32;20091;-60
2022/12/20 04:26:59;;;;;;;6.20;3.22;;;9.20;99.90;;;;;;7375806;32;20125;-59
2022/12/20 04:31:02;;;;;;;6.20;3.12;;;9.30;99.90;;;;;;7369957;32;20174;-59
2022/12/20 04:35:04;;;;;;;4.07;3.00;;;9.30;99.90;;;;;;7382181;32;20107;-60
2022/12/20 04:39:05;;;;;;;5.70;3.20;;;9.20;99.90;;;;;;7374238;32;20226;-59
2022/12/20 04:43:07;;;;;;;6.93;3.30;;;9.20;99.90;;;;;;7379486;32;20129;-60
2022/12/20 04:47:09;;;;;;;7.85;3.10;;;9.20;99.90;;;;;;7377039;32;20096;-61
2022/12/20 04:51:10;;;;;;;7.07;3.30;;;9.30;99.90;;;;;;7375229;32;20095;-59
2022/12/20 04:55:12;;;;;;;8.20;3.25;;;9.30;99.90;;;;;;7375453;32;20230;-60
2022/12/20 04:59:14;;;;;;;5.22;3.20;;;9.30;99.90;;;;;;7379789;32;20103;-60
2022/12/20 05:03:15;;;;;;;7.05;3.60;;;9.20;99.90;;;;;;7374611;32;20474;-60
2022/12/20 05:07:17;;;;;;;5.70;3.20;;;9.10;99.90;;;;;;7371456;32;20270;-61
2022/12/20 05:11:19;;;;;;;8.05;3.60;;;9.10;99.90;;;;;;7375787;32;20610;-60
2022/12/20 05:15:20;;;;;;;8.18;4.00;;;9.10;99.90;;;;;;7376825;32;20134;-60
2022/12/20 05:19:22;;;;;;;7.40;3.80;;;9.10;99.90;;;;;;7375067;32;21053;-59
2022/12/20 05:27:44;;;;;;;5.97;3.75;;;9.10;99.90;;;;;;7376367;32;20111;-59
2022/12/20 05:31:46;;;;;;;6.75;3.42;;;9.20;99.90;;;;;;7377874;32;20177;-60
2022/12/20 05:35:48;;;;;;;6.57;3.35;;;9.10;99.90;;;;;;7375709;32;20122;-59
2022/12/20 05:39:50;;;;;;;6.90;3.53;;;9.10;99.90;;;;;;7380461;32;20099;-60
2022/12/20 05:43:51;;;;;;;9.23;3.03;;;9.30;99.90;;;;;;7378411;32;20096;-60
2022/12/20 05:47:53;;;;;;;6.20;3.28;;;9.30;99.90;;;;;;7380535;32;20272;-60
2022/12/20 05:51:55;;;;;;;5.35;3.22;;;9.20;99.90;;;;;;7378001;32;20119;-60
2022/12/20 05:56:00;;;;;;;6.30;3.20;;;9.30;99.90;;;;;;7372668;32;20222;-60
2022/12/20 06:00:03;;;;;;;5.55;2.75;;;9.30;99.90;;;;;;7377254;32;20924;-60
2022/12/20 06:04:05;;;;;;;6.35;2.70;;;9.40;99.90;;;;;;7375913;32;20206;-60
2022/12/20 06:08:07;;;;;;;5.05;2.53;;;9.40;99.90;;;;;;7375431;32;20231;-61
2022/12/20 06:12:08;;;;;;;7.20;2.87;;;9.50;99.90;;;;;;7370760;32;20117;-61
2022/12/20 06:16:10;;;;;;;7.43;2.47;;;9.40;99.90;;;;;;7368596;32;20103;-60
2022/12/20 06:20:12;;;;;;;3.20;2.30;;;9.60;99.90;;;;;;7378332;32;20847;-59
2022/12/20 06:24:14;;;;;;;5.25;2.83;;;9.50;99.90;;;;;;7376499;32;20213;-60
2022/12/20 06:28:20;;;;;;;4.43;2.95;;;9.50;99.90;;;;;;7378251;32;20604;-59
2022/12/20 06:32:22;;;;;;;4.07;2.40;;;9.60;99.90;;;;;;7377207;32;20178;-59
2022/12/20 06:36:24;;;;;;;5.95;2.67;;;9.60;99.90;;;;;;7378705;32;20632;-59
2022/12/20 06:40:25;;;;;;;3.62;2.60;;;9.60;99.90;;;;;;7366922;32;20103;-60
2022/12/20 06:44:27;;;;;;;4.40;2.30;;;9.70;99.90;;;;;;7379795;32;20103;-61
2022/12/20 06:48:29;;;;;;;5.57;2.37;;;9.70;99.90;;;;;;7372788;32;20099;-62
2022/12/20 06:52:31;;;;;;;5.93;2.87;;;9.80;99.90;;;;;;7368934;32;20379;-61
2022/12/20 06:56:33;;;;;;;3.70;2.28;;;9.80;99.90;;;;;;7372611;32;20264;-60
2022/12/20 07:00:41;;;;;;;6.05;2.40;;;9.80;99.90;;;;;;7371866;32;20506;-61
2022/12/20 07:04:43;;;;;;;6.68;2.47;;;9.80;99.90;;;;;;7379473;32;20189;-61
2022/12/20 07:08:45;;;;;;;4.00;2.40;;;9.90;99.90;;;;;;7373651;32;20707;-61
2022/12/20 07:12:46;;;;;;;6.20;2.35;;;9.80;99.90;;;;;;7370910;32;20117;-60
2022/12/20 07:16:49;;;;;;;4.55;2.10;;;9.90;99.90;;;;;;7370270;32;20119;-62
2022/12/20 07:20:51;;;;;;;3.35;2.00;;;9.90;99.90;;;;;;7370530;32;20176;-60
2022/12/20 07:24:53;;;;;;;5.35;2.42;;;9.90;99.90;;;;;;7369966;32;20276;-60
2022/12/20 07:28:55;;;;;;;7.93;2.30;;;10.00;99.90;;;;;;7370344;32;20582;-60
2022/12/20 07:32:57;;;;;;;5.65;2.45;;;9.90;99.90;;;;;;7371603;32;20177;-62
2022/12/20 07:36:59;;;;;;;5.25;2.30;;;9.90;99.90;;;;;;7370158;32;20451;-63
2022/12/20 07:41:09;;;;;;;3.97;2.30;;;9.90;99.90;;;;;;7371956;32;20513;-63
2022/12/20 07:45:10;;;;;;;3.80;2.10;;;9.90;99.90;;;;;;7362466;32;20099;-63
2022/12/20 07:49:13;;;;;;;3.42;2.17;;;9.80;99.90;;;;;;7359603;32;20406;-62
2022/12/20 07:53:14;;;;;;;7.75;2.42;;;9.90;99.90;;;;;;7365793;32;20223;-62
2022/12/20 07:57:30;;;;;;;5.97;1.98;;;9.90;99.90;;;;;;7374451;32;20213;-61
2022/12/20 08:01:32;;;;;;;3.28;2.25;;;9.90;99.90;;;;;;7369395;32;20146;-62
2022/12/20 08:05:37;;;;;;;3.83;2.08;;;9.70;99.90;;;;;;7375030;32;20190;-62
2022/12/20 08:09:42;;;;;;;3.83;2.08;;;9.80;99.90;;;;;;7376222;32;20205;-62
2022/12/20 08:13:45;;;;;;;3.28;2.05;;;9.90;99.90;;;;;;7379266;32;20095;-61
2022/12/20 08:17:51;;;;;;;3.17;1.80;;;10.00;99.90;;;;;;7378969;32;20103;-62
2022/12/20 08:21:53;;;;;;;3.37;1.95;;;9.90;99.90;;;;;;7376187;32;20125;-61
2022/12/20 08:25:54;;;;;;;3.58;1.70;;;9.90;99.90;;;;;;7373391;32;21127;-61
2022/12/20 08:29:56;;;;;;;5.43;1.92;;;10.00;99.90;;;;;;7376472;32;20560;-61
2022/12/20 08:33:58;;;;;;;6.85;1.92;;;10.00;99.90;;;;;;7370255;32;20099;-63
2022/12/20 08:38:00;;;;;;;3.70;1.85;;;9.90;99.90;;;;;;7378481;32;20117;-61
2022/12/20 08:42:03;;;;;;;3.72;1.85;;;10.00;99.90;;;;;;7374004;32;20651;-62
2022/12/20 08:46:06;;;;;;;3.35;1.80;;;10.10;99.90;;;;;;7373286;32;20102;-63
2022/12/20 08:50:09;;;;;;;2.58;1.67;;;10.20;99.90;;;;;;7376447;32;20157;-62
2022/12/20 08:54:10;;;;;;;3.80;1.75;;;10.30;99.90;;;;;;7375684;32;20107;-62
2022/12/20 08:58:12;;;;;;;4.70;1.52;;;10.20;99.90;;;;;;7367514;32;20125;-62
2022/12/20 09:02:14;;;;;;;5.20;1.73;;;10.30;99.90;;;;;;7376905;32;20218;-62
2022/12/20 09:06:19;;;;;;;4.30;1.85;;;10.30;99.90;;;;;;7376278;32;20225;-62
2022/12/20 09:10:20;;;;;;;4.25;1.85;;;10.40;99.90;;;;;;7380306;32;20204;-62
2022/12/20 09:14:22;;;;;;;4.95;1.90;;;10.40;99.90;;;;;;7383170;32;20650;-61
2022/12/20 09:18:24;;;;;;;4.37;1.87;;;10.50;99.90;;;;;;7376739;32;20283;-62
2022/12/20 09:22:28;;;;;;;4.78;1.80;;;10.40;99.90;;;;;;7381190;32;20133;-62
2022/12/20 09:26:30;;;;;;;4.37;2.15;;;10.40;99.90;;;;;;7377974;32;20099;-64
2022/12/20 09:30:32;;;;;;;3.10;1.42;;;10.40;99.90;;;;;;7382578;32;20103;-62
2022/12/20 09:34:33;;;;;;;6.47;2.53;;;10.40;99.90;;;;;;7383719;32;20190;-62
2022/12/20 09:38:35;;;;;;;3.75;1.95;;;10.50;99.90;;;;;;7382860;32;20174;-62
2022/12/20 09:42:37;;;;;;;6.15;2.20;;;10.50;99.90;;;;;;7380869;32;20244;-63
2022/12/20 09:46:40;;;;;;;5.30;1.92;;;10.40;99.90;;;;;;7380361;32;20102;-64
2022/12/20 09:51:08;;;;;;;4.28;2.25;;;10.50;99.90;;;;;;7379470;32;20096;-63
2022/12/20 09:55:19;;;;;;;3.50;2.00;;;10.50;99.90;;;;;;7381001;32;20583;-63
2022/12/20 09:59:21;;;;;;;4.93;2.20;;;10.50;99.90;;;;;;7375412;32;20185;-62
2022/12/20 10:03:28;;;;;;;5.30;2.22;;;10.50;99.90;;;;;;7368828;32;20103;-62
2022/12/20 10:08:01;;;;;;;6.78;2.00;;;10.60;99.90;;;;;;7368402;32;20115;-61
2022/12/20 10:12:31;;;;;;;4.12;2.10;;;10.60;99.90;;;;;;7371216;32;20652;-62
2022/12/20 10:16:44;;;;;;;4.82;2.30;;;10.50;99.90;;;;;;7373871;32;20223;-62
2022/12/20 10:21:09;;;;;;;2.95;2.00;;;10.60;99.90;;;;;;7373472;32;20108;-63
2022/12/20 10:25:24;;;;;;;4.65;2.05;;;10.60;99.90;;;;;;7371740;32;20132;-63
2022/12/20 10:29:25;;;;;;;4.87;2.15;;;10.60;99.90;;;;;;7364718;32;20130;-62
2022/12/20 10:33:30;;;;;;;6.40;2.08;;;10.70;99.90;;;;;;7366819;32;20717;-61
2022/12/20 10:37:31;;;;;;;4.93;2.10;;;10.70;99.90;;;;;;7373183;32;20226;-62
2022/12/20 10:41:39;;;;;;;5.43;2.22;;;10.70;99.90;;;;;;7372974;32;20118;-61
2022/12/20 10:45:42;;;;;;;4.03;2.05;;;10.70;99.90;;;;;;7381684;32;20111;-63
2022/12/20 10:49:44;;;;;;;4.22;1.92;;;10.80;99.90;;;;;;7373976;32;20201;-62
2022/12/20 10:54:00;;;;;;;3.90;2.03;;;10.80;99.90;;;;;;7377986;32;20482;-62
2022/12/20 10:58:30;;;;;;;4.00;1.80;;;10.80;99.90;;;;;;7379535;32;20129;-62
2022/12/20 11:02:38;;;;;;;3.90;1.73;;;11.00;99.90;;;;;;7365625;32;20644;-62
2022/12/20 11:06:44;;;;;;;3.83;1.73;;;11.00;99.90;;;;;;7372102;32;20244;-63
2022/12/20 11:10:46;;;;;;;6.50;1.73;;;11.00;99.90;;;;;;7375006;32;20178;-65
2022/12/20 11:14:48;;;;;;;2.75;1.60;;;11.10;99.90;;;;;;7372960;32;20216;-64
2022/12/20 11:19:01;;;;;;;6.47;2.00;;;11.20;99.90;;;;;;7369993;32;20479;-64
2022/12/20 11:23:45;;;;;;;6.72;1.58;;;11.20;99.90;;;;;;7366674;32;20130;-62
2022/12/20 11:27:53;;;;;;;7.28;1.95;;;11.30;99.90;;;;;;7342037;32;20141;-62
2022/12/20 11:32:23;;;;;;;3.10;1.48;;;11.20;99.90;;;;;;7370743;32;20437;-61
2022/12/20 11:37:01;;;;;;;3.40;1.85;;;11.30;99.90;;;;;;7367704;32;20758;-62
2022/12/20 11:41:40;;;;;;;4.43;1.70;;;11.30;99.90;;;;;;7371752;32;20579;-62
2022/12/20 11:46:28;;;;;;;2.92;1.60;;;11.20;99.90;;;;;;7374631;32;20133;-61
2022/12/20 11:50:39;;;;;;;3.28;1.80;;;11.10;99.90;;;;;;7361766;32;20145;-62
2022/12/20 11:54:46;;;;;;;3.75;1.73;;;11.20;99.90;;;;;;7370835;32;20132;-62
2022/12/20 11:59:02;;;;;;;2.47;1.35;;;11.20;99.90;;;;;;7367591;32;20240;-62
2022/12/20 12:03:33;;;;;;;3.17;1.50;;;11.20;99.90;;;;;;7368606;32;20210;-62
2022/12/20 12:07:38;;;;;;;5.07;1.73;;;11.40;99.90;;;;;;7366080;32;20173;-64
2022/12/20 12:11:48;;;;;;;4.00;1.65;;;11.40;99.90;;;;;;7375338;32;20512;-62
2022/12/20 12:16:18;;;;;;;3.22;1.70;;;11.40;99.90;;;;;;7370141;32;20210;-62
2022/12/20 12:20:41;;;;;;;4.55;2.03;;;11.40;99.90;;;;;;7370964;32;20122;-62
2022/12/20 12:24:48;;;;;;;3.40;1.65;;;11.40;99.90;;;;;;7372666;32;20182;-62
2022/12/20 12:28:54;;;;;;;;;;;11.40;99.90;;;;;;7362062;32;20175;-62
2022/12/20 12:33:01;;;;;;;5.55;1.55;;;11.50;99.90;;;;;;7367693;32;20011;-61
2022/12/20 12:37:37;;;;;;;6.15;1.90;;;11.40;99.90;;;;;;7377040;32;20119;-61
2022/12/20 12:41:54;;;;;;;4.45;1.52;;;11.40;99.90;;;;;;7369087;32;20273;-60
2022/12/20 12:45:57;;;;;;;4.15;2.00;;;11.40;99.90;;;;;;7374992;32;20212;-62
2022/12/20 12:50:02;;;;;;;5.65;2.00;;;11.30;99.90;;;;;;7375610;32;20205;-63
2022/12/20 12:54:33;;;;;;;6.90;2.20;;;11.30;99.90;;;;;;7375860;32;20212;-62
2022/12/20 12:58:35;;;;;;;3.95;1.98;;;11.20;99.90;;;;;;7375093;32;20103;-62
2022/12/20 13:02:50;;;;;;;5.18;2.20;;;11.00;99.90;;;;;;7374080;32;20118;-63
2022/12/20 13:06:58;;;;;;;5.78;2.33;;;10.90;99.90;;;;;;7378935;32;20180;-62
2022/12/20 13:11:00;;;;;;;4.32;2.22;;;10.90;99.90;;;;;;7381375;32;20397;-63
2022/12/20 13:15:22;;;;;;;5.03;2.80;;;10.80;99.90;;;;;;7375678;32;20214;-63
2022/12/20 13:19:24;;;;;;;4.95;2.10;;;10.70;99.90;;;;;;7380151;32;20287;-62
2022/12/20 13:23:26;;;;;;;7.00;2.62;;;10.70;99.90;;;;;;7377080;32;20099;-63
2022/12/20 13:27:32;;;;;;;7.87;3.25;;;10.60;99.90;;;;;;7375304;32;20099;-62
2022/12/20 13:31:34;;;;;;;9.20;2.97;;;10.50;99.90;;;;;;7372531;32;20311;-61
2022/12/20 13:35:54;;;;;;;8.65;2.65;;;10.50;99.90;;;;;;7376501;32;20292;-63
2022/12/20 13:39:58;;;;;;;7.22;2.80;;;10.40;99.90;;;;;;7376064;32;22270;-63
2022/12/20 13:44:26;;;;;;;7.53;3.17;;;10.30;99.90;;;;;;7379213;32;20183;-62
2022/12/20 13:48:34;;;;;;;6.93;3.12;;;10.40;99.90;;;;;;7370219;32;20099;-62
2022/12/20 13:52:43;;;;;;;6.85;3.50;;;10.30;99.90;;;;;;7371680;32;20125;-63
2022/12/20 13:56:46;;;;;;;8.80;3.30;;;10.30;99.90;;;;;;7372593;32;20117;-62
2022/12/20 14:00:49;;;;;;;7.30;3.15;;;10.30;99.90;;;;;;7371413;32;20205;-61
2022/12/20 14:05:01;;;;;;;7.85;3.35;;;10.30;99.90;;;;;;7375972;32;20244;-61
2022/12/20 14:09:04;;;;;;;5.28;3.37;;;10.20;99.90;;;;;;7369441;32;20220;-61
2022/12/20 14:13:25;;;;;;;6.00;3.72;;;10.20;99.90;;;;;;7371985;32;20571;-61
2022/12/20 14:17:32;;;;;;;8.50;3.70;;;10.00;99.90;;;;;;7376610;32;20130;-63
2022/12/20 14:21:36;;;;;;;8.38;4.07;;;10.10;99.90;;;;;;7377144;32;20440;-61
2022/12/20 14:25:59;;;;;;;9.23;4.28;;;10.00;99.90;;;;;;7367456;32;20504;-62
2022/12/20 14:30:01;;;;;;;7.03;4.03;;;10.00;99.90;;;;;;7370118;32;20107;-61
2022/12/20 14:34:09;;;;;;;7.03;3.90;;;9.90;99.90;;;;;;7369969;32;20099;-62
2022/12/20 14:38:23;;;;;;;9.02;4.55;;;9.90;99.90;;;;;;7370725;32;20122;-62
2022/12/20 14:42:31;;;;;;;6.25;3.50;;;9.80;99.90;;;;;;7375519;32;20618;-61
2022/12/20 14:46:34;;;;;;;8.93;3.58;;;9.90;99.90;;;;;;7367769;32;20554;-62
2022/12/20 14:50:39;;;;;;;6.20;3.70;;;9.90;99.90;;;;;;7371606;32;20095;-61
2022/12/20 14:54:59;;;;;;;7.90;3.58;;;9.90;99.90;;;;;;7367657;32;20588;-63
2022/12/20 14:59:16;;;;;;;5.75;3.80;;;9.90;99.90;;;;;;7376535;32;20110;-62
2022/12/20 15:03:19;;;;;;;7.40;4.05;;;9.80;99.90;;;;;;7367558;32;20125;-62
2022/12/20 15:07:30;;;;;;;8.35;3.83;;;9.80;99.90;;;;;;7375119;32;20107;-62
2022/12/20 15:11:34;;;;;;;9.65;3.90;;;9.70;99.90;;;;;;7367895;32;20200;-62
2022/12/20 15:15:36;;;;;;;6.00;3.35;;;9.70;99.90;;;;;;7372095;32;20646;-62
2022/12/20 15:19:37;;;;;;;7.30;3.78;;;9.80;99.90;;;;;;7367639;32;20114;-63
2022/12/20 15:23:47;;;;;;;9.40;4.05;;;9.60;99.90;;;;;;7370534;32;20522;-63
2022/12/20 15:27:49;;;;;;;5.68;3.67;;;9.60;99.90;;;;;;7370655;32;20504;-63
2022/12/20 15:32:16;;;;;;;7.25;4.60;;;9.60;99.90;;;;;;7373782;32;20443;-63
2022/12/20 15:36:25;;;;;;;11.25;4.70;;;9.60;99.90;;;;;;7371295;32;20432;-62
2022/12/20 15:40:26;;;;;;;9.02;4.55;;;9.60;99.90;;;;;;7366159;32;20103;-60
2022/12/20 15:44:30;;;;;;;10.10;3.85;;;9.60;99.90;;;;;;7374996;32;20119;-60
2022/12/20 15:48:32;;;;;;;9.50;3.80;;;9.60;99.90;;;;;;7379748;32;20207;-60
2022/12/20 15:52:33;;;;;;;10.15;4.47;;;9.70;99.90;;;;;;7370381;32;20133;-59
2022/12/20 15:56:35;;;;;;;7.97;4.18;;;9.80;99.90;;;;;;7376168;32;20103;-60
2022/12/20 16:00:41;;;;;;;5.05;3.47;;;9.70;99.90;;;;;;7374436;32;20182;-60
2022/12/20 16:04:43;;;;;;;7.77;3.57;;;9.70;99.90;;;;;;7372002;32;20142;-60
2022/12/20 16:08:45;;;;;;;8.45;4.12;;;9.60;99.90;;;;;;7373765;32;20197;-60
2022/12/20 16:12:47;;;;;;;8.50;3.22;;;9.70;99.90;;;;;;7374208;32;20095;-60
2022/12/20 16:16:49;;;;;;;5.80;3.12;;;9.70;99.90;;;;;;7377750;32;20145;-61
2022/12/20 16:20:51;;;;;;;8.38;3.70;;;9.70;99.90;;;;;;7375043;32;20126;-60
2022/12/20 16:24:52;;;;;;;6.68;4.03;;;9.60;99.90;;;;;;7381563;32;20137;-59
2022/12/20 16:28:55;;;;;;;7.35;3.53;;;9.70;99.90;;;;;;7376819;32;20126;-59
2022/12/20 16:32:58;;;;;;;8.00;3.47;;;9.70;99.90;;;;;;7377231;32;20249;-60
2022/12/20 16:36:59;;;;;;;9.38;4.10;;;9.80;99.90;;;;;;7373897;32;20111;-60
2022/12/20 16:41:11;;;;;;;6.50;4.32;;;9.70;99.90;;;;;;7374847;32;20099;-61
2022/12/20 16:45:19;;;;;;;7.82;4.30;;;9.60;99.90;;;;;;7386807;32;20129;-60
2022/12/20 16:49:21;;;;;;;11.40;4.22;;;9.70;99.90;;;;;;7383471;32;20117;-60
2022/12/20 16:53:23;;;;;;;9.52;4.50;;;9.70;99.90;;;;;;7379927;32;20107;-60
2022/12/20 16:57:24;;;;;;;7.45;3.87;;;9.80;99.90;;;;;;7379190;32;20241;-59
2022/12/20 17:01:34;;;;;;;6.18;3.67;;;9.90;99.90;;;;;;7384394;32;20103;-59
2022/12/20 17:05:38;;;;;;;7.80;3.85;;;9.90;99.90;;;;;;7372477;32;21743;-59
2022/12/20 17:09:40;;;;;;;6.85;3.85;;;9.90;99.90;;;;;;7381524;32;20132;-59
2022/12/20 17:13:59;;;;;;;6.43;3.80;;;9.80;99.90;;;;;;7374769;32;20142;-59
2022/12/20 17:18:01;;;;;;;7.97;4.32;;;9.70;99.90;;;;;;7371195;32;20130;-60
2022/12/20 17:22:03;;;;;;;12.02;4.70;;;9.70;99.90;;;;;;7382639;32;20224;-59
2022/12/20 17:26:27;;;;;;;6.05;4.53;;;9.60;99.90;;;;;;7372537;32;20764;-60
2022/12/20 17:30:28;;;;;;;7.23;4.83;;;9.60;99.90;;;;;;7386057;32;20536;-60
2022/12/20 17:34:30;;;;;;;8.75;4.95;;;9.70;99.90;;;;;;7379680;32;20099;-59
2022/12/20 17:38:32;;;;;;;8.23;4.97;;;9.70;99.90;;;;;;7373838;32;20670;-60
2022/12/20 17:42:33;;;;;;;7.65;5.05;;;9.60;99.90;;;;;;7378178;32;20130;-60
2022/12/20 17:46:35;;;;;;;13.82;5.07;;;9.70;99.90;;;;;;7379991;32;20182;-59
2022/12/20 17:50:38;;;;;;;7.85;4.45;;;9.70;99.90;;;;;;7372611;32;20107;-59
2022/12/20 17:54:40;;;;;;;8.27;4.53;;;9.80;99.90;;;;;;7380985;32;20095;-60
2022/12/20 17:58:42;;;;;;;5.95;3.60;;;9.80;99.90;;;;;;7379070;32;20099;-59
2022/12/20 18:02:44;;;;;;;8.45;4.03;;;9.90;99.90;;;;;;7376291;32;20106;-59
2022/12/20 18:06:47;;;;;;;11.63;4.80;;;9.90;99.90;;;;;;7383542;32;21313;-60
2022/12/20 18:10:48;;;;;;;6.45;4.60;;;9.80;99.90;;;;;;7370219;32;20161;-60
2022/12/20 18:14:50;;;;;;;8.68;5.30;;;9.70;99.90;;;;;;7374828;32;20092;-60
2022/12/20 18:18:52;;;;;;;7.30;4.90;;;9.70;99.90;;;;;;7381104;32;20115;-60
2022/12/20 18:22:54;;;;;;;10.65;5.90;;;9.70;99.90;;;;;;7373663;32;20091;-60
2022/12/20 18:26:55;;;;;;;8.73;5.50;;;9.80;99.90;;;;;;7373378;32;20186;-60
2022/12/20 18:31:00;;;;;;;10.55;6.00;;;9.80;99.90;;;;;;7374849;32;20096;-60
2022/12/20 18:35:02;;;;;;;7.32;5.70;;;9.60;99.90;;;;;;7376532;32;20633;-60
2022/12/20 18:39:06;;;;;;;10.77;5.85;;;9.60;99.90;;;;;;7375488;32;20133;-59
2022/12/20 18:43:07;;;;;;;13.35;6.62;;;9.70;99.90;;;;;;7377819;32;20098;-59
2022/12/20 18:47:09;;;;;;;13.95;6.87;;;9.60;99.90;;;;;;7371174;32;20096;-61
2022/12/20 18:51:14;;;;;;;10.90;6.12;;;9.60;99.90;;;;;;7372355;32;20580;-60
2022/12/20 18:55:16;;;;;;;9.73;5.78;;;9.60;99.90;;;;;;7371859;32;20281;-60
2022/12/20 18:59:18;;;;;;;9.60;5.95;;;9.60;99.90;;;;;;7373184;32;20408;-59
2022/12/20 19:03:20;;;;;;;8.60;6.10;;;9.60;99.90;;;;;;7373512;32;20225;-60
2022/12/20 19:07:21;;;;;;;9.05;5.53;;;9.70;99.90;;;;;;7371890;32;20129;-61
2022/12/20 19:11:23;;;;;;;9.20;6.28;;;9.70;99.90;;;;;;7374615;32;20111;-60
2022/12/20 19:15:25;;;;;;;7.72;6.15;;;9.70;99.90;;;;;;7376004;32;20214;-60
2022/12/20 19:19:27;;;;;;;10.18;6.30;;;9.70;99.90;;;;;;7372317;32;20214;-60
2022/12/20 19:23:28;;;;;;;9.55;6.57;;;9.60;99.90;;;;;;7371054;32;20537;-64
2022/12/20 19:27:30;;;;;;;10.88;6.20;;;9.60;99.90;;;;;;7376487;32;20175;-60
2022/12/20 19:31:35;;;;;;;11.75;6.62;;;9.70;99.90;;;;;;7375425;32;20181;-60
2022/12/20 19:35:37;;;;;;;9.32;6.37;;;9.70;99.90;;;;;;7375739;32;20268;-61
2022/12/20 19:39:57;;;;;;;13.82;6.45;;;9.60;99.90;;;;;;7380759;32;20224;-60
2022/12/20 19:43:58;;;;;;;8.00;7.03;;;9.60;99.90;;;;;;7371279;32;20252;-61
2022/12/20 19:48:00;;;;;;;11.05;6.50;;;9.60;99.90;;;;;;7366447;32;20122;-59
2022/12/20 19:52:02;;;;;;;10.38;7.03;;;9.60;99.90;;;;;;7372498;32;20122;-62
2022/12/20 19:56:04;;;;;;;12.77;7.87;;;9.60;99.90;;;;;;7372019;32;20117;-59
2022/12/20 20:00:07;;;;;;;10.98;7.45;;;9.60;99.90;;;;;;7373571;32;20334;-59
2022/12/20 20:04:09;;;;;;;11.90;7.20;;;9.70;99.90;;;;;;7371822;32;20280;-61
2022/12/20 20:08:11;;;;;;;9.43;6.68;;;9.60;99.90;;;;;;7373911;32;20122;-60
2022/12/20 20:12:12;;;;;;;10.15;7.00;;;9.70;99.90;;;;;;7372076;32;20642;-63
2022/12/20 20:16:14;;;;;;;10.88;7.25;;;9.70;99.90;;;;;;7365996;32;20206;-62
2022/12/20 20:20:23;;;;;;;13.13;7.90;;;9.70;99.90;;;;;;7372818;32;20215;-63
2022/12/20 20:24:24;;;;;;;15.57;7.47;;;9.70;99.90;;;;;;7374749;32;20167;-62
2022/12/20 20:28:29;;;;;;;11.52;8.02;;;9.70;99.90;;;;;;7369919;32;20128;-63
2022/12/20 20:32:36;;;;;;;;;;;9.70;99.90;;;;;;7372557;32;20377;-62
2022/12/20 20:36:38;;;;;;;11.25;7.75;;;9.70;99.90;;;;;;7368716;32;20093;-60
2022/12/20 20:40:39;;;;;;;9.65;6.82;;;9.70;99.90;;;;;;7369190;32;20087;-62
2022/12/20 20:44:41;;;;;;;10.30;6.87;;;9.70;99.90;;;;;;7374406;32;20095;-62
2022/12/20 20:48:43;;;;;;;13.95;7.62;;;9.80;99.90;;;;;;7368707;32;20104;-63
2022/12/20 20:52:45;;;;;;;10.68;6.85;;;9.90;99.90;;;;;;7374881;32;20486;-64
2022/12/20 20:56:47;;;;;;;12.90;6.93;;;9.90;99.90;;;;;;7372453;32;20298;-64
2022/12/20 21:00:56;;;;;;;14.35;7.97;;;9.80;99.90;;;;;;7367851;32;21002;-62
2022/12/20 21:04:57;;;;;;;10.60;7.90;;;9.70;99.90;;;;;;7374582;32;20270;-62
2022/12/20 21:09:19;;;;;;;16.73;8.38;;;9.80;99.90;;;;;;7372436;32;20100;-63
2022/12/20 21:13:21;;;;;;;15.57;8.52;;;9.80;99.90;;;;;;7371080;32;20125;-62
2022/12/20 21:17:22;;;;;;;10.88;6.12;;;9.70;99.90;;;;;;7379305;32;20190;-62
2022/12/20 21:21:25;;;;;;;11.65;6.82;;;9.80;99.90;;;;;;7376689;32;20113;-62
2022/12/20 21:25:27;;;;;;;10.82;5.75;;;9.80;99.90;;;;;;7376024;32;20198;-62
2022/12/20 21:29:29;;;;;;;7.97;5.60;;;9.90;99.90;;;;;;7377793;32;20106;-63
2022/12/20 21:33:31;;;;;;;7.28;5.32;;;9.90;99.90;;;;;;7377979;32;20117;-62